Wetterdaten für den Flughafen Lübeck Blankensee


ADDS - METARS form results Aviation Digital Data Service (ADDS) Output produced by METARs form (2202 UTC 26 May 2019)
found at http://www.aviationweather.gov/metar/data/
 
EDDH 262150Z 25009KT 220V280 5000 -RADZ SCT009 BKN013 15/14 Q1006 TEMPO 4000 RADZ BKN007
TAF AMD EDDH 261910Z 2619/2724 24012KT 9999 SCT020 BKN030 TEMPO 2619/2621 24015G25KT 4500 RA BKN008 BKN014 BECMG 2621/2623 22007KT BKN012 TEMPO 2621/2703 3500 RA BKN007 BECMG 2703/2705 28010KT SCT012 BKN020 PROB30 TEMPO 2705/2707 BKN012 TEMPO 2709/2715 29015G25KT

Nord: Hamburg, Lübeck
Ost: Schwerin, Rostock
Süd: Hannover
West: Bremen, Nordhloz

Copyright © 2016 Flugschule Hohensee